Time;durP1;ratioP1;P1;durP2;ratioP2;P2;SDS_P1;SDS_P2;PMS_P1;PMS_P2;Temp;Humidity;BMP_temperature;BMP_pressure;BME280_temperature;BME280_humidity;BME280_pressure;Samples;Min_cycle;Max_cycle;Signal;HPM_P1;HPM_P2
2022/05/14 00:01:58;;;;;;;;;;;;;;;20.05;68.58;100517.56;7402109;19;1832;-37
2022/05/14 00:04:27;;;;;;;;;;;;;;;19.99;67.96;100508.25;7402803;19;1577;-37
2022/05/14 00:06:58;;;;;;;;;;;;;;;19.98;68.25;100516.47;7402993;19;1926;-37
2022/05/14 00:09:26;;;;;;;;;;;;;;;19.97;68.80;100515.59;7402155;19;1888;-37
2022/05/14 00:14:35;;;;;;;;;;;;;;;19.93;68.56;100494.59;7403533;19;1566;-37
2022/05/14 00:17:05;;;;;;;;;;;;;;;19.95;68.69;100500.66;7402578;19;1631;-37
2022/05/14 00:19:34;;;;;;;;;;;;;;;19.93;68.55;100508.00;7401595;19;1345;-37
2022/05/14 00:22:05;;;;;;;;;;;;;;;19.93;68.51;100487.38;7404087;19;1542;-36
2022/05/14 00:24:33;;;;;;;;;;;;;;;19.95;69.07;100489.91;7403421;19;1541;-36
2022/05/14 00:27:01;;;;;;;;;;;;;;;20.00;68.49;100503.75;7402890;19;1912;-38
2022/05/14 00:29:30;;;;;;;;;;;;;;;19.95;68.77;100482.72;7402358;19;1863;-37
2022/05/14 00:31:58;;;;;;;;;;;;;;;19.94;68.55;100496.31;7405426;19;1803;-36
2022/05/14 00:34:27;;;;;;;;;;;;;;;19.92;68.76;100493.75;7402538;19;1735;-36
2022/05/14 00:36:55;;;;;;;;;;;;;;;19.92;68.38;100480.34;7402402;19;1743;-36
2022/05/14 00:39:26;;;;;;;;;;;;;;;19.94;68.42;100477.50;7402347;19;1823;-37
2022/05/14 00:41:54;;;;;;;;;;;;;;;19.92;68.31;100472.28;7402064;19;1661;-37
2022/05/14 00:44:22;;;;;;;;;;;;;;;19.94;68.44;100488.25;7401677;19;1740;-37
2022/05/14 00:46:54;;;;;;;;;;;;;;;19.94;68.20;100480.19;7402635;19;1711;-37
2022/05/14 00:49:24;;;;;;;;;;;;;;;19.92;68.33;100480.34;7399464;19;1969;-37
2022/05/14 00:51:53;;;;;;;;;;;;;;;19.90;68.42;100460.03;7403401;19;1690;-37
2022/05/14 00:54:23;;;;;;;;;;;;;;;19.97;68.38;100487.94;7401373;19;2026;-37
2022/05/14 00:56:56;;;;;;;;;;;;;;;19.91;68.40;100467.06;7401581;19;1657;-37
2022/05/14 00:59:25;;;;;;;;;;;;;;;19.91;68.34;100472.44;7402761;19;1739;-37
2022/05/14 01:01:54;;;;;;;;;;;;;;;19.90;68.55;100484.16;7399456;19;1807;-37
2022/05/14 01:04:23;;;;;;;;;;;;;;;19.91;67.97;100483.16;7400941;19;1580;-37
2022/05/14 01:06:54;;;;;;;;;;;;;;;19.90;68.32;100482.31;7401340;19;1770;-37
2022/05/14 01:09:22;;;;;;;;;;;;;;;19.90;68.09;100482.31;7400966;19;1855;-37
2022/05/14 01:11:55;;;;;;;;;;;;;;;19.91;67.97;100486.69;7401563;19;1896;-37
2022/05/14 01:14:24;;;;;;;;;;;;;;;19.90;67.88;100473.44;7401159;19;1622;-37
2022/05/14 01:16:52;;;;;;;;;;;;;;;19.92;67.89;100479.50;7402163;19;1606;-37
2022/05/14 01:19:20;;;;;;;;;;;;;;;19.91;67.89;100483.16;7398385;19;1548;-37
2022/05/14 01:21:55;;;;;;;;;;;;;;;19.89;67.96;100490.53;7402134;19;1836;-37
2022/05/14 01:27:12;;;;;;;;;;;;;;;19.89;67.98;100480.63;7400731;19;1961;-37
2022/05/14 01:29:41;;;;;;;;;;;;;;;19.91;68.19;100488.53;7399242;19;1861;-37
2022/05/14 01:32:11;;;;;;;;;;;;;;;19.89;68.12;100495.88;7400347;19;1822;-36
2022/05/14 01:34:44;;;;;;;;;;;;;;;19.86;68.17;100495.19;7401609;19;1676;-37
2022/05/14 01:37:14;;;;;;;;;;;;;;;19.90;68.39;100503.78;7401168;19;1914;-37
2022/05/14 01:39:48;;;;;;;;;;;;;;;19.88;68.19;100478.94;7401354;19;1922;-37
2022/05/14 01:45:11;;;;;;;;;;;;;;;19.86;68.07;100492.50;7398737;19;2154;-37
2022/05/14 01:47:45;;;;;;;;;;;;;;;19.85;67.84;100487.28;7401541;19;1924;-36
2022/05/14 01:50:18;;;;;;;;;;;;;;;19.88;68.06;100492.38;7398526;19;2087;-37
2022/05/14 01:52:51;;;;;;;;;;;;;;;19.86;68.16;100483.63;7401619;19;1831;-37
2022/05/14 01:55:24;;;;;;;;;;;;;;;19.86;67.71;100486.31;7402001;19;1929;-37
2022/05/14 01:57:59;;;;;;;;;;;;;;;19.88;67.68;100478.13;7401604;19;1766;-37
2022/05/14 02:00:28;;;;;;;;;;;;;;;19.86;67.92;100473.72;7396252;19;3482;-64
2022/05/14 02:02:56;;;;;;;;;;;;;;;19.86;67.65;100479.09;7397334;19;1766;-58
2022/05/14 02:05:25;;;;;;;;;;;;;;;19.88;67.68;100478.13;7400955;19;1611;-64
2022/05/14 02:07:53;;;;;;;;;;;;;;;19.86;67.70;100488.97;7403688;19;1579;-58
2022/05/14 02:10:21;;;;;;;;;;;;;;;19.85;68.09;100487.28;7401129;19;1838;-58
2022/05/14 02:12:50;;;;;;;;;;;;;;;19.83;67.79;100490.09;7402914;19;1386;-59
2022/05/14 02:15:21;;;;;;;;;;;;;;;19.85;68.00;100477.38;7410024;19;1682;-58
2022/05/14 02:17:49;;;;;;;;;;;;;;;19.85;67.94;100496.16;7410579;19;1757;-59
2022/05/14 02:20:18;;;;;;;;;;;;;;;19.88;67.55;100494.22;7410436;19;1285;-59
2022/05/14 02:22:47;;;;;;;;;;;;;;;19.83;68.14;100479.38;7410522;19;1287;-65
2022/05/14 02:25:19;;;;;;;;;;;;;;;19.84;67.95;100483.75;7410252;19;1726;-59
2022/05/14 02:27:47;;;;;;;;;;;;;;;19.84;67.73;100488.28;7410870;19;1602;-64
2022/05/14 02:30:15;;;;;;;;;;;;;;;19.80;67.87;100485.06;7408291;19;1853;-64
2022/05/14 02:32:46;;;;;;;;;;;;;;;19.85;67.80;100489.97;7410800;19;1343;-64
2022/05/14 02:35:15;;;;;;;;;;;;;;;19.81;67.90;100489.41;7409952;19;1519;-64
2022/05/14 02:37:43;;;;;;;;;;;;;;;19.81;67.54;100486.72;7409643;19;1601;-65
2022/05/14 02:40:12;;;;;;;;;;;;;;;19.81;67.89;100497.47;7410480;19;1539;-58
2022/05/14 02:42:40;;;;;;;;;;;;;;;19.79;67.78;100507.50;7408139;19;1658;-65
2022/05/14 02:45:09;;;;;;;;;;;;;;;19.80;67.45;100511.88;7408358;19;1391;-59
2022/05/14 02:47:37;;;;;;;;;;;;;;;19.82;67.78;100503.69;7408832;19;1451;-64
2022/05/14 02:50:10;;;;;;;;;;;;;;;19.81;67.60;100505.50;7405475;19;1849;-59
2022/05/14 02:52:39;;;;;;;;;;;;;;;19.80;67.38;100514.56;7409429;19;1462;-58
2022/05/14 02:55:07;;;;;;;;;;;;;;;19.81;67.44;100505.50;7410009;19;1041;-59
2022/05/14 02:57:36;;;;;;;;;;;;;;;19.81;67.61;100502.81;7409413;19;1765;-59
2022/05/14 03:00:06;;;;;;;;;;;;;;;19.80;67.48;100495.78;7408089;19;1659;-58
2022/05/14 03:02:47;;;;;;;;;;;;;;;19.79;67.70;100496.75;7405396;19;1649;-59
2022/05/14 03:05:19;;;;;;;;;;;;;;;19.80;67.73;100493.09;7408017;19;1629;-65
2022/05/14 03:07:48;;;;;;;;;;;;;;;19.80;67.80;100487.72;7408840;19;1583;-63
2022/05/14 03:10:17;;;;;;;;;;;;;;;19.80;67.17;100487.72;7407599;19;1849;-59
2022/05/14 03:12:46;;;;;;;;;;;;;;;19.81;67.61;100488.56;7408133;19;1318;-59
2022/05/14 03:15:15;;;;;;;;;;;;;;;19.80;67.29;100486.91;7406316;19;1420;-58
2022/05/14 03:17:43;;;;;;;;;;;;;;;19.79;67.55;100498.59;7408011;19;1765;-58
2022/05/14 03:20:13;;;;;;;;;;;;;;;19.78;67.51;100494.25;7406767;19;1459;-59
2022/05/14 03:22:44;;;;;;;;;;;;;;;19.77;67.31;100479.97;7408511;19;1607;-64
2022/05/14 03:25:13;;;;;;;;;;;;;;;19.80;67.32;100495.78;7408144;19;1362;-65
2022/05/14 03:27:41;;;;;;;;;;;;;;;19.80;67.42;100479.69;7408423;19;1440;-65
2022/05/14 03:30:10;;;;;;;;;;;;;;;19.79;67.25;100493.25;7406645;19;1863;-63
2022/05/14 03:32:38;;;;;;;;;;;;;;;19.75;67.45;100483.78;7408398;19;1738;-65
2022/05/14 03:35:08;;;;;;;;;;;;;;;19.79;67.40;100490.56;7405650;19;1438;-65
2022/05/14 03:37:36;;;;;;;;;;;;;;;19.82;67.26;100487.59;7406202;19;1603;-64
2022/05/14 03:40:09;;;;;;;;;;;;;;;19.79;67.41;100491.38;7407355;19;1532;-59
2022/05/14 03:42:38;;;;;;;;;;;;;;;19.80;67.35;100506.50;7407348;19;1643;-64
2022/05/14 03:45:07;;;;;;;;;;;;;;;19.79;67.46;100515.53;7407991;19;1738;-65
2022/05/14 03:47:35;;;;;;;;;;;;;;;19.81;67.48;100520.75;7407868;19;1715;-59
2022/05/14 03:50:04;;;;;;;;;;;;;;;19.79;67.75;100545.06;7404879;19;1872;-64
2022/05/14 03:52:32;;;;;;;;;;;;;;;19.81;67.90;100550.28;7408066;19;1255;-59
2022/05/14 03:55:01;;;;;;;;;;;;;;;19.78;67.34;100562.16;7407563;19;1491;-64
2022/05/14 03:57:32;;;;;;;;;;;;;;;19.76;67.52;100572.19;7407881;19;1604;-58
2022/05/14 04:00:01;;;;;;;;;;;;;;;19.81;68.01;100569.06;7407312;19;1427;-58
2022/05/14 04:02:30;;;;;;;;;;;;;;;19.76;67.82;100544.53;7403017;19;1605;-58
2022/05/14 04:04:58;;;;;;;;;;;;;;;19.76;68.02;100504.28;7406362;19;1628;-58
2022/05/14 04:07:27;;;;;;;;;;;;;;;19.75;68.12;100526.72;7406883;19;1541;-63
2022/05/14 04:09:55;;;;;;;;;;;;;;;19.77;68.27;100540.84;7405970;19;1860;-58
2022/05/14 04:12:23;;;;;;;;;;;;;;;19.77;68.22;100538.16;7406183;19;1710;-58
2022/05/14 04:14:54;;;;;;;;;;;;;;;19.74;68.15;100523.19;7407406;19;1533;-58
2022/05/14 04:17:23;;;;;;;;;;;;;;;19.76;68.20;100548.03;7407535;19;1576;-63
2022/05/14 04:19:51;;;;;;;;;;;;;;;19.76;68.78;100553.41;7405309;19;1502;-59
2022/05/14 04:22:19;;;;;;;;;;;;;;;19.77;68.50;100565.81;7406527;19;1609;-58
2022/05/14 04:24:48;;;;;;;;;;;;;;;19.78;68.56;100564.84;7406866;19;1305;-58
2022/05/14 04:27:16;;;;;;;;;;;;;;;19.78;68.73;100574.75;7406550;19;1673;-63
2022/05/14 04:29:44;;;;;;;;;;;;;;;19.77;69.08;100579.22;7405358;19;1859;-63
2022/05/14 04:32:15;;;;;;;;;;;;;;;19.76;68.81;100580.25;7406290;19;1542;-62
2022/05/14 04:34:45;;;;;;;;;;;;;;;19.80;69.19;100610.31;7405872;19;1510;-58
2022/05/14 04:37:13;;;;;;;;;;;;;;;19.76;68.81;100593.66;7404862;19;1533;-63
2022/05/14 04:39:42;;;;;;;;;;;;;;;19.77;68.99;100611.44;7405712;19;1672;-57
2022/05/14 04:42:12;;;;;;;;;;;;;;;19.77;68.96;100605.22;7405227;19;1590;-58
2022/05/14 04:44:41;;;;;;;;;;;;;;;19.76;69.25;100619.66;7405649;19;1345;-58
2022/05/14 04:47:09;;;;;;;;;;;;;;;19.75;69.32;100608.06;7405696;19;1392;-58
2022/05/14 04:49:43;;;;;;;;;;;;;;;19.76;68.99;100614.28;7402997;19;1862;-58
2022/05/14 04:52:12;;;;;;;;;;;;;;;19.73;68.91;100615.41;7405575;19;1538;-63
2022/05/14 04:54:40;;;;;;;;;;;;;;;19.78;69.31;100631.91;7406524;19;1608;-63
2022/05/14 04:57:09;;;;;;;;;;;;;;;19.75;69.08;100626.84;7405200;19;1611;-58
2022/05/14 04:59:37;;;;;;;;;;;;;;;19.74;68.95;100621.63;7404556;19;1612;-58
2022/05/14 05:04:50;;;;;;;;;;;;;;;19.75;69.03;100642.94;7404482;19;1516;-63
2022/05/14 05:07:18;;;;;;;;;;;;;;;19.74;69.43;100643.09;7405169;19;1607;-63
2022/05/14 05:09:46;;;;;;;;;;;;;;;19.77;69.37;100653.53;7404363;19;1861;-63
2022/05/14 05:12:15;;;;;;;;;;;;;;;19.75;69.04;100626.00;7404602;19;1642;-58
2022/05/14 05:14:43;;;;;;;;;;;;;;;19.76;69.28;100643.81;7404247;19;1428;-63
2022/05/14 05:17:11;;;;;;;;;;;;;;;19.77;69.44;100643.63;7405658;19;1348;-58
2022/05/14 05:19:40;;;;;;;;;;;;;;;19.80;68.92;100621.06;7403934;19;1681;-63
2022/05/14 05:22:11;;;;;;;;;;;;;;;19.81;69.20;100623.56;7406002;19;1603;-58
2022/05/14 05:24:39;;;;;;;;;;;;;;;19.82;68.95;100630.66;7405140;19;1522;-63
2022/05/14 05:27:08;;;;;;;;;;;;;;;19.90;69.25;100629.94;7403762;19;1277;-63
2022/05/14 05:29:36;;;;;;;;;;;;;;;19.98;68.80;100639.94;7403361;19;1857;-63
2022/05/14 05:32:05;;;;;;;;;;;;;;;20.06;68.35;100645.44;7404153;19;1520;-63
2022/05/14 05:34:33;;;;;;;;;;;;;;;20.05;68.54;100635.66;7403577;19;1612;-63
2022/05/14 05:37:01;;;;;;;;;;;;;;;20.07;68.57;100639.06;7403890;19;1518;-63
2022/05/14 05:39:32;;;;;;;;;;;;;;;20.08;68.38;100651.50;7403348;19;1584;-58
2022/05/14 05:42:01;;;;;;;;;;;;;;;20.18;68.28;100646.09;7402713;19;1444;-63
2022/05/14 05:44:29;;;;;;;;;;;;;;;20.26;68.21;100630.94;7403660;19;1373;-58
2022/05/14 05:46:57;;;;;;;;;;;;;;;20.34;68.23;100635.56;7404437;19;1433;-58
2022/05/14 05:49:25;;;;;;;;;;;;;;;20.32;68.00;100625.97;7407414;19;1861;-58
2022/05/14 05:51:54;;;;;;;;;;;;;;;20.32;67.71;100636.72;7412703;19;1219;-58
2022/05/14 05:57:06;;;;;;;;;;;;;;;20.34;68.00;100640.13;7410725;19;1246;-63
2022/05/14 05:59:34;;;;;;;;;;;;;;;20.36;67.83;100640.81;7410568;19;1335;-63
2022/05/14 06:02:03;;;;;;;;;;;;;;;20.41;67.74;100641.19;7408690;19;1325;-58
2022/05/14 06:04:31;;;;;;;;;;;;;;;20.45;67.93;100642.59;7410736;19;1306;-58
2022/05/14 06:07:00;;;;;;;;;;;;;;;20.50;67.62;100645.69;7410567;19;1257;-68
2022/05/14 06:09:29;;;;;;;;;;;;;;;20.61;67.77;100650.03;7408766;19;1227;-72
2022/05/14 06:11:59;;;;;;;;;;;;;;;20.58;68.52;100645.78;7410931;19;1389;-59
2022/05/14 06:14:29;;;;;;;;;;;;;;;20.58;68.66;100643.09;7410783;19;1191;-68
2022/05/14 06:16:59;;;;;;;;;;;;;;;20.58;68.66;100644.94;7410984;19;1715;-68
2022/05/14 06:19:27;;;;;;;;;;;;;;;20.60;68.91;100630.41;7409916;19;1300;-60
2022/05/14 06:21:55;;;;;;;;;;;;;;;20.66;68.51;100643.22;7411680;19;1257;-59
2022/05/14 06:24:24;;;;;;;;;;;;;;;20.66;68.98;100623.59;7408712;19;1432;-57
2022/05/14 06:26:52;;;;;;;;;;;;;;;20.55;69.03;100624.59;7409796;19;1421;-57
2022/05/14 06:29:21;;;;;;;;;;;;;;;20.51;69.45;100623.19;7409339;19;1236;-57
2022/05/14 06:31:52;;;;;;;;;;;;;;;20.48;69.25;100620.81;7407355;19;1891;-63
2022/05/14 06:34:21;;;;;;;;;;;;;;;20.48;69.13;100634.25;7410038;19;1639;-57
2022/05/14 06:36:49;;;;;;;;;;;;;;;20.46;68.84;100626.31;7410535;19;1347;-64
2022/05/14 06:39:18;;;;;;;;;;;;;;;20.48;68.74;100631.56;7409995;19;1272;-63
2022/05/14 06:41:47;;;;;;;;;;;;;;;20.58;68.40;100632.34;7409072;19;1433;-63
2022/05/14 06:44:15;;;;;;;;;;;;;;;20.56;68.45;100634.34;7410288;19;1419;-57
2022/05/14 06:46:44;;;;;;;;;;;;;;;20.53;68.59;100623.91;7409759;19;1392;-57
2022/05/14 06:49:15;;;;;;;;;;;;;;;20.57;68.39;100641.44;7408766;19;1615;-63
2022/05/14 06:51:43;;;;;;;;;;;;;;;20.60;67.84;100625.03;7409549;19;1851;-57
2022/05/14 06:54:13;;;;;;;;;;;;;;;20.78;67.85;100637.66;7409211;19;1762;-54
2022/05/14 06:56:43;;;;;;;;;;;;;;;20.82;68.23;100629.13;7409212;19;1657;-52
2022/05/14 06:59:14;;;;;;;;;;;;;;;20.98;67.75;100633.84;7408083;19;1556;-60
2022/05/14 07:01:43;;;;;;;;;;;;;;;20.96;68.17;100630.47;7405096;19;1531;-62
2022/05/14 07:06:56;;;;;;;;;;;;;;;21.02;68.24;100634.41;7410725;19;1526;-57
2022/05/14 07:09:27;;;;;;;;;;;;;;;21.06;68.09;100633.94;7407099;19;1349;-65
2022/05/14 07:11:56;;;;;;;;;;;;;;;21.04;68.94;100641.31;7404978;19;1845;-66
2022/05/14 07:14:25;;;;;;;;;;;;;;;20.98;68.76;100639.22;7408174;19;1229;-58
2022/05/14 07:16:54;;;;;;;;;;;;;;;20.99;68.82;100634.69;7407993;19;1107;-59
2022/05/14 07:19:23;;;;;;;;;;;;;;;21.03;68.94;100653.06;7408679;19;1290;-69
2022/05/14 07:21:52;;;;;;;;;;;;;;;21.01;69.00;100656.91;7408536;19;1387;-67
2022/05/14 07:24:25;;;;;;;;;;;;;;;20.98;68.85;100647.28;7406203;19;1656;-63
2022/05/14 07:26:53;;;;;;;;;;;;;;;20.96;69.01;100660.03;7407119;19;1314;-65
2022/05/14 07:29:23;;;;;;;;;;;;;;;20.95;69.58;100661.03;7405696;19;1384;-61
2022/05/14 07:31:52;;;;;;;;;;;;;;;20.93;69.75;100671.09;7401533;19;1873;-61
2022/05/14 07:34:20;;;;;;;;;;;;;;;20.98;68.79;100668.78;7407052;19;1300;-65
2022/05/14 07:36:51;;;;;;;;;;;;;;;21.03;68.70;100665.69;7408719;19;1216;-64
2022/05/14 07:39:21;;;;;;;;;;;;;;;21.11;68.24;100675.66;7407799;19;1229;-65
2022/05/14 07:41:53;;;;;;;;;;;;;;;21.05;68.46;100675.28;7407574;19;1421;-63
2022/05/14 07:44:24;;;;;;;;;;;;;;;21.05;68.52;100683.34;7406773;19;1366;-63
2022/05/14 07:46:52;;;;;;;;;;;;;;;20.99;68.75;100678.56;7407786;19;1349;-69
2022/05/14 07:49:22;;;;;;;;;;;;;;;20.98;68.81;100701.06;7407425;19;1340;-64
2022/05/14 07:51:51;;;;;;;;;;;;;;;20.94;68.67;100702.34;7407515;19;1851;-61
2022/05/14 07:54:20;;;;;;;;;;;;;;;20.90;68.67;100702.81;7406825;19;1303;-63
2022/05/14 07:56:48;;;;;;;;;;;;;;;20.89;69.39;100699.28;7397551;19;1364;-67
2022/05/14 07:59:19;;;;;;;;;;;;;;;20.92;68.86;100698.97;7401746;19;1268;-67
2022/05/14 08:01:47;;;;;;;;;;;;;;;21.08;68.15;100703.69;7400532;19;1416;-56
2022/05/14 08:04:16;;;;;;;;;;;;;;;21.05;68.75;100699.47;7401769;19;1176;-55
2022/05/14 08:06:44;;;;;;;;;;;;;;;21.07;68.57;100707.38;7403081;19;1333;-60
2022/05/14 08:09:13;;;;;;;;;;;;;;;21.19;68.43;100683.81;7399163;19;1411;-56
2022/05/14 08:11:41;;;;;;;;;;;;;;;21.21;68.46;100690.72;7314263;19;13623;-63
2022/05/14 08:14:09;;;;;;;;;;;;;;;21.19;68.10;100705.34;7400207;19;1758;-55
2022/05/14 08:16:40;;;;;;;;;;;;;;;21.19;68.36;100706.19;7401098;19;1287;-55
2022/05/14 08:19:09;;;;;;;;;;;;;;;21.16;68.68;100701.09;7397115;19;1877;-68
2022/05/14 08:24:34;;;;;;;;;;;;;;;21.19;68.88;100700.78;7401577;19;1421;-59
2022/05/14 08:27:03;;;;;;;;;;;;;;;21.08;68.88;100692.94;7399757;19;1259;-61
2022/05/14 08:29:32;;;;;;;;;;;;;;;21.10;68.92;100711.59;7405332;19;1671;-72
2022/05/14 08:32:03;;;;;;;;;;;;;;;21.05;69.01;100698.63;7404037;19;1867;-69
2022/05/14 08:34:32;;;;;;;;;;;;;;;21.05;68.94;100707.53;7405877;19;1336;-54
2022/05/14 08:37:00;;;;;;;;;;;;;;;21.04;69.50;100687.00;7406704;19;1401;-55
2022/05/14 08:39:29;;;;;;;;;;;;;;;21.09;68.92;100699.16;7403072;19;1263;-66
2022/05/14 08:41:59;;;;;;;;;;;;;;;21.08;69.35;100694.78;7403056;19;1501;-54
2022/05/14 08:44:30;;;;;;;;;;;;;;;21.16;68.71;100681.44;7406153;19;1432;-70
2022/05/14 08:47:03;;;;;;;;;;;;;;;21.23;68.77;100686.06;7405377;19;1256;-68
2022/05/14 08:49:35;;;;;;;;;;;;;;;21.13;68.30;100698.72;7404863;19;1436;-67
2022/05/14 08:52:05;;;;;;;;;;;;;;;21.06;68.28;100685.00;7404062;19;1853;-64
2022/05/14 08:54:34;;;;;;;;;;;;;;;21.03;68.78;100709.53;7402954;19;1508;-50
2022/05/14 08:57:07;;;;;;;;;;;;;;;20.99;68.22;100683.94;7404100;19;1427;-64
2022/05/14 08:59:56;;;;;;;;;;;;;;;21.00;68.38;100706.28;7402950;19;1373;-50
2022/05/14 09:02:27;;;;;;;;;;;;;;;21.04;68.25;100700.44;7399532;19;1458;-52
2022/05/14 09:05:03;;;;;;;;;;;;;;;21.02;68.26;100693.53;7403336;19;1327;-55
2022/05/14 09:07:31;;;;;;;;;;;;;;;20.98;68.07;100687.59;7406575;19;1285;-64
2022/05/14 09:10:00;;;;;;;;;;;;;;;21.00;67.94;100688.31;7405281;19;1669;-64
2022/05/14 09:12:39;;;;;;;;;;;;;;;21.02;67.92;100689.00;7402285;19;1865;-65
2022/05/14 09:15:13;;;;;;;;;;;;;;;20.99;67.74;100693.81;7404348;19;1424;-58
2022/05/14 09:17:41;;;;;;;;;;;;;;;20.97;67.82;100694.00;7404444;19;1221;-56
2022/05/14 09:20:13;;;;;;;;;;;;;;;20.91;67.86;100691.91;7404613;19;1454;-65
2022/05/14 09:22:43;;;;;;;;;;;;;;;20.86;67.82;100694.19;7405011;19;1347;-56
2022/05/14 09:25:18;;;;;;;;;;;;;;;20.85;67.87;100687.16;7405267;19;1326;-55
2022/05/14 09:27:49;;;;;;;;;;;;;;;20.83;68.02;100683.72;7403863;19;1506;-65
2022/05/14 09:30:25;;;;;;;;;;;;;;;20.80;67.76;100684.88;7404058;19;1774;-64
2022/05/14 09:32:54;;;;;;;;;;;;;;;20.78;67.68;100670.75;7402758;19;1865;-55
2022/05/14 09:35:26;;;;;;;;;;;;;;;20.82;67.54;100687.44;7402714;19;1389;-55
2022/05/14 09:37:57;;;;;;;;;;;;;;;20.81;67.51;100680.34;7403042;19;1301;-65
2022/05/14 09:40:28;;;;;;;;;;;;;;;20.85;67.32;100690.66;7402933;19;1242;-54
2022/05/14 09:42:58;;;;;;;;;;;;;;;21.08;66.35;100684.88;7400734;19;1512;-55
2022/05/14 09:45:30;;;;;;;;;;;;;;;21.10;66.33;100676.66;7402327;19;1410;-53
2022/05/14 09:47:58;;;;;;;;;;;;;;;21.11;66.70;100675.66;7403449;19;1664;-55
2022/05/14 09:50:32;;;;;;;;;;;;;;;21.16;68.29;100676.03;7403244;19;1624;-69
2022/05/14 09:53:02;;;;;;;;;;;;;;;21.26;67.04;100684.88;7401109;19;1855;-54
2022/05/14 09:55:40;;;;;;;;;;;;;;;21.18;67.32;100682.13;7400592;19;1222;-55
2022/05/14 09:58:11;;;;;;;;;;;;;;;21.25;67.01;100684.06;7399226;19;1351;-54
2022/05/14 10:00:46;;;;;;;;;;;;;;;21.08;67.33;100690.25;7402481;19;1346;-68
2022/05/14 10:03:27;;;;;;;;;;;;;;;21.01;67.61;100684.63;7402947;19;1687;-69
2022/05/14 10:06:02;;;;;;;;;;;;;;;20.98;67.57;100698.38;7403191;19;1141;-54
2022/05/14 10:08:48;;;;;;;;;;;;;;;20.94;67.91;100701.50;7402703;19;1582;-54
2022/05/14 10:11:19;;;;;;;;;;;;;;;20.91;67.95;100680.28;7403330;19;1861;-69
2022/05/14 10:13:52;;;;;;;;;;;;;;;20.92;67.67;100704.34;7402147;19;1433;-69
2022/05/14 10:16:24;;;;;;;;;;;;;;;20.87;67.82;100687.84;7402330;19;1359;-51
2022/05/14 10:19:00;;;;;;;;;;;;;;;20.99;68.00;100688.44;7402615;19;1333;-66
2022/05/14 10:21:37;;;;;;;;;;;;;;;21.01;67.64;100676.56;7404033;19;1572;-53
2022/05/14 10:27:01;;;;;;;;;;;;;;;20.94;67.88;100675.47;7400608;19;1509;-65
2022/05/14 10:29:34;;;;;;;;;;;;;;;20.94;68.07;100694.28;7399914;19;1206;-66
2022/05/14 10:32:04;;;;;;;;;;;;;;;20.90;68.23;100689.38;7401037;19;1850;-66
2022/05/14 10:34:39;;;;;;;;;;;;;;;20.86;68.40;100675.38;7404639;19;1648;-63
2022/05/14 10:37:14;;;;;;;;;;;;;;;20.94;68.19;100677.31;7410648;19;1506;-68
2022/05/14 10:39:44;;;;;;;;;;;;;;;20.89;68.66;100675.09;7409966;19;1508;-52
2022/05/14 10:42:16;;;;;;;;;;;;;;;20.90;68.21;100690.22;7406182;19;1612;-71
2022/05/14 10:44:48;;;;;;;;;;;;;;;20.85;68.67;100682.59;7405056;19;1383;-58
2022/05/14 10:47:16;;;;;;;;;;;;;;;20.84;68.72;100680.06;7408467;19;1457;-57
2022/05/14 10:49:47;;;;;;;;;;;;;;;20.81;68.79;100667.78;7409522;19;1293;-66
2022/05/14 10:52:19;;;;;;;;;;;;;;;20.82;68.97;100660.56;7406909;19;1853;-67
2022/05/14 10:54:48;;;;;;;;;;;;;;;20.83;68.45;100652.34;7407769;19;1324;-56
2022/05/14 10:57:27;;;;;;;;;;;;;;;20.86;68.81;100668.16;7407289;19;1291;-56
2022/05/14 10:59:56;;;;;;;;;;;;;;;20.80;68.66;100654.47;7408126;19;1286;-57
2022/05/14 11:02:33;;;;;;;;;;;;;;;20.81;68.86;100648.97;7406367;19;1398;-59
2022/05/14 11:05:02;;;;;;;;;;;;;;;20.76;69.23;100653.09;7408453;19;1324;-59
2022/05/14 11:07:35;;;;;;;;;;;;;;;20.74;68.96;100638.97;7409336;19;1396;-67
2022/05/14 11:10:11;;;;;;;;;;;;;;;20.75;69.22;100643.31;7410387;19;1579;-59
2022/05/14 11:12:40;;;;;;;;;;;;;;;20.74;69.09;100649.72;7407701;19;1864;-61
2022/05/14 11:15:21;;;;;;;;;;;;;;;20.71;69.17;100631.19;7409231;19;1331;-65
2022/05/14 11:17:50;;;;;;;;;;;;;;;20.71;69.00;100648.19;7408208;19;1773;-65
2022/05/14 11:20:20;;;;;;;;;;;;;;;20.67;69.22;100636.00;7409233;19;1519;-60
2022/05/14 11:22:52;;;;;;;;;;;;;;;20.69;68.99;100634.03;7410557;19;1537;-63
2022/05/14 11:25:25;;;;;;;;;;;;;;;20.71;68.88;100628.50;7409238;19;1771;-68
2022/05/14 11:27:58;;;;;;;;;;;;;;;20.68;69.08;100626.13;7409635;19;1430;-67
2022/05/14 11:30:37;;;;;;;;;;;;;;;20.70;69.13;100629.50;7409584;19;1628;-69
2022/05/14 11:33:07;;;;;;;;;;;;;;;20.67;69.10;100622.56;7408476;19;1853;-78
2022/05/14 11:35:40;;;;;;;;;;;;;;;20.74;69.04;100630.91;7409702;19;1564;-77
2022/05/14 11:38:17;;;;;;;;;;;;;;;20.73;68.80;100621.13;7410977;19;1429;-78
2022/05/14 11:40:56;;;;;;;;;;;;;;;20.78;68.84;100622.38;7408810;19;1885;-74
2022/05/14 11:43:28;;;;;;;;;;;;;;;20.78;68.67;100614.31;7406099;19;1536;-65
2022/05/14 11:46:05;;;;;;;;;;;;;;;20.76;68.73;100597.50;7405367;19;1466;-60
2022/05/14 11:48:38;;;;;;;;;;;;;;;20.79;68.63;100602.59;7409090;19;1603;-68
2022/05/14 11:51:10;;;;;;;;;;;;;;;20.79;68.81;100609.78;7407311;19;1735;-65
2022/05/14 11:53:44;;;;;;;;;;;;;;;20.78;68.86;100597.34;7406103;19;1834;-64
2022/05/14 11:56:15;;;;;;;;;;;;;;;20.76;68.86;100592.13;7406439;19;1442;-58
2022/05/14 11:58:46;;;;;;;;;;;;;;;20.79;69.07;100593.66;7408266;19;1300;-59
2022/05/14 12:01:16;;;;;;;;;;;;;;;20.86;68.78;100598.28;7408358;19;1466;-65
2022/05/14 12:03:46;;;;;;;;;;;;;;;20.79;68.70;100591.84;7405597;19;1615;-66
2022/05/14 12:06:26;;;;;;;;;;;;;;;20.78;68.71;100578.53;7407554;19;1619;-58
2022/05/14 12:09:04;;;;;;;;;;;;;;;20.78;68.72;100574.00;7408111;19;1335;-54
2022/05/14 12:11:35;;;;;;;;;;;;;;;20.92;68.77;100564.56;7407036;19;1866;-65
2022/05/14 12:14:06;;;;;;;;;;;;;;;20.94;68.70;100584.06;7403995;19;1628;-50
2022/05/14 12:16:35;;;;;;;;;;;;;;;20.86;68.88;100581.31;7407247;19;1762;-51
2022/05/14 12:19:04;;;;;;;;;;;;;;;20.86;69.00;100576.78;7407310;19;1564;-63
2022/05/14 12:21:34;;;;;;;;;;;;;;;20.81;69.28;100565.66;7407875;19;1521;-63
2022/05/14 12:24:05;;;;;;;;;;;;;;;20.78;68.89;100581.22;7406953;19;1588;-63
2022/05/14 12:26:35;;;;;;;;;;;;;;;20.74;69.02;100577.16;7406242;19;1579;-50
2022/05/14 12:29:04;;;;;;;;;;;;;;;20.74;68.78;100561.03;7405664;19;1679;-63
2022/05/14 12:34:14;;;;;;;;;;;;;;;20.73;69.13;100549.44;7407767;19;1430;-63
2022/05/14 12:36:45;;;;;;;;;;;;;;;20.78;68.75;100578.53;7407328;19;1588;-50
2022/05/14 12:39:18;;;;;;;;;;;;;;;20.75;68.72;100557.34;7404678;19;1650;-63
2022/05/14 12:41:48;;;;;;;;;;;;;;;20.73;69.00;100551.25;7404462;19;1533;-50
2022/05/14 12:44:18;;;;;;;;;;;;;;;20.73;68.61;100551.25;7404794;19;1599;-51
2022/05/14 12:46:48;;;;;;;;;;;;;;;20.82;68.45;100531.56;7405823;19;1336;-56
2022/05/14 12:49:21;;;;;;;;;;;;;;;20.93;68.08;100533.16;7405891;19;1269;-49
2022/05/14 12:51:54;;;;;;;;;;;;;;;20.93;68.14;100528.63;7406582;19;1856;-50
2022/05/14 12:54:26;;;;;;;;;;;;;;;20.93;68.30;100536.72;7405117;19;1795;-75
2022/05/14 12:56:56;;;;;;;;;;;;;;;20.92;68.26;100529.63;7405382;19;1400;-66
2022/05/14 12:59:25;;;;;;;;;;;;;;;20.89;68.51;100516.50;7406453;19;1532;-56
2022/05/14 13:01:57;;;;;;;;;;;;;;;20.93;68.22;100527.78;7405576;19;2085;-62
2022/05/14 13:04:29;;;;;;;;;;;;;;;20.92;68.37;100502.75;7407421;19;1506;-55
2022/05/14 13:07:01;;;;;;;;;;;;;;;20.88;68.32;100511.28;7407564;19;1537;-63
2022/05/14 13:09:33;;;;;;;;;;;;;;;20.84;68.59;100500.00;7402630;19;1773;-70
2022/05/14 13:12:01;;;;;;;;;;;;;;;20.99;68.49;100498.44;7404527;19;1853;-70
2022/05/14 13:14:31;;;;;;;;;;;;;;;21.26;67.78;100496.63;7405139;19;1353;-67
2022/05/14 13:17:02;;;;;;;;;;;;;;;21.17;67.78;100497.56;7405847;19;1609;-63
2022/05/14 13:19:36;;;;;;;;;;;;;;;21.17;68.38;100502.94;7402580;19;1343;-54
2022/05/14 13:22:07;;;;;;;;;;;;;;;21.26;68.66;100491.25;7405574;19;1524;-67
2022/05/14 13:24:38;;;;;;;;;;;;;;;21.38;68.60;100495.38;7405234;19;1606;-66
2022/05/14 13:27:09;;;;;;;;;;;;;;;21.22;68.79;100479.13;7407649;19;1603;-57
2022/05/14 13:29:39;;;;;;;;;;;;;;;21.31;69.06;100478.19;7405288;19;1649;-58